createdAt,value
2023-03-05T00:00:00.321Z,98810.47
2023-03-05T00:01:34.558Z,98812.41
2023-03-05T00:03:07.730Z,98814.38
2023-03-05T00:04:42.404Z,98810.06
2023-03-05T00:06:14.874Z,98804.97
2023-03-05T00:07:48.977Z,98809.56
2023-03-05T00:09:22.598Z,98803.59
2023-03-05T00:10:59.726Z,98799.25
2023-03-05T00:12:33.085Z,98800.94
2023-03-05T00:14:07.161Z,98794.84
2023-03-05T00:15:43.303Z,98792.00
2023-03-05T00:17:16.533Z,98791.91
2023-03-05T00:18:50.466Z,98794.38
2023-03-05T00:20:25.065Z,98795.09
2023-03-05T00:21:58.490Z,98791.69
2023-03-05T00:23:30.889Z,98792.94
2023-03-05T00:25:04.784Z,98785.38
2023-03-05T00:26:40.196Z,98786.34
2023-03-05T00:28:12.872Z,98780.34
2023-03-05T00:29:46.183Z,98775.28
2023-03-05T00:31:20.370Z,98777.22
2023-03-05T00:32:54.042Z,98776.41
2023-03-05T00:34:28.397Z,98770.41
2023-03-05T00:36:07.229Z,98779.31
2023-03-05T00:37:40.396Z,98770.47
2023-03-05T00:39:14.661Z,98775.75
2023-03-05T00:40:46.927Z,98768.28
2023-03-05T00:42:20.143Z,98763.13
2023-03-05T00:43:52.430Z,98765.88
2023-03-05T00:45:25.671Z,98767.78
2023-03-05T00:46:59.274Z,98764.25
2023-03-05T00:48:31.614Z,98764.25
2023-03-05T00:50:08.017Z,98769.63
2023-03-05T00:51:41.802Z,98759.34
2023-03-05T00:53:15.204Z,98768.38
2023-03-05T00:54:48.371Z,98761.31
2023-03-05T00:56:21.844Z,98770.16
2023-03-05T00:57:54.177Z,98765.00
2023-03-05T00:59:27.749Z,98767.63
2023-03-05T01:01:02.949Z,98761.47
2023-03-05T01:02:36.198Z,98763.00
2023-03-05T01:04:09.783Z,98768.94
2023-03-05T01:05:43.178Z,98761.75
2023-03-05T01:07:17.897Z,98770.63
2023-03-05T01:08:51.359Z,98768.91
2023-03-05T01:10:26.603Z,98766.31
2023-03-05T01:12:00.318Z,98766.59
2023-03-05T01:13:33.508Z,98765.81
2023-03-05T01:15:07.774Z,98778.06
2023-03-05T01:16:41.094Z,98766.59
2023-03-05T01:18:13.564Z,98765.00
2023-03-05T01:19:46.684Z,98776.59
2023-03-05T01:21:20.305Z,98773.91
2023-03-05T01:22:55.187Z,98773.06
2023-03-05T01:24:28.751Z,98768.66
2023-03-05T01:26:01.886Z,98767.66
2023-03-05T01:27:35.392Z,98770.13
2023-03-05T01:29:08.714Z,98767.34
2023-03-05T01:30:41.302Z,98769.97
2023-03-05T01:32:14.678Z,98761.06
2023-03-05T01:33:48.097Z,98775.78
2023-03-05T01:35:24.358Z,98773.88
2023-03-05T01:36:57.643Z,98771.25
2023-03-05T01:38:31.300Z,98769.44
2023-03-05T01:40:06.341Z,98771.13
2023-03-05T01:41:39.871Z,98765.88
2023-03-05T01:43:27.928Z,98765.75
2023-03-05T01:45:03.941Z,98764.75
2023-03-05T01:46:38.865Z,98765.41
2023-03-05T01:48:11.192Z,98768.13
2023-03-05T01:49:44.483Z,98772.38
2023-03-05T01:51:17.580Z,98772.31
2023-03-05T01:52:54.049Z,98770.69
2023-03-05T01:54:34.007Z,98769.84
2023-03-05T01:56:07.834Z,98775.06
2023-03-05T01:57:45.360Z,98768.13
2023-03-05T01:59:19.273Z,98772.53
2023-03-05T02:00:55.405Z,98767.31
2023-03-05T02:02:29.030Z,98775.28
2023-03-05T02:04:02.564Z,98771.03
2023-03-05T02:05:38.179Z,98770.16
2023-03-05T02:07:13.041Z,98771.03
2023-03-05T02:08:46.890Z,98778.88
2023-03-05T02:10:23.777Z,98772.84
2023-03-05T02:11:56.991Z,98775.81
2023-03-05T02:13:34.164Z,98770.81
2023-03-05T02:15:09.217Z,98771.69
2023-03-05T02:16:43.074Z,98775.97
2023-03-05T02:18:17.027Z,98768.13
2023-03-05T02:19:52.504Z,98763.00
2023-03-05T02:21:36.830Z,98766.22
2023-03-05T02:23:10.238Z,98768.84
2023-03-05T02:24:43.500Z,98773.19
2023-03-05T02:26:15.742Z,98769.81
2023-03-05T02:27:56.025Z,98769.97
2023-03-05T02:29:30.636Z,98762.03
2023-03-05T02:31:03.971Z,98770.72
2023-03-05T02:32:37.224Z,98772.50
2023-03-05T02:34:11.879Z,98762.66
2023-03-05T02:35:46.589Z,98769.53
2023-03-05T02:37:21.333Z,98772.16
2023-03-05T02:38:59.204Z,98767.81
2023-03-05T02:40:31.964Z,98775.63
2023-03-05T02:42:05.386Z,98766.91
2023-03-05T02:43:39.310Z,98780.19
2023-03-05T02:45:14.153Z,98764.47
2023-03-05T02:46:47.790Z,98772.16
2023-03-05T02:48:20.082Z,98773.19
2023-03-05T02:49:53.426Z,98773.19
2023-03-05T02:51:26.620Z,98768.84
2023-03-05T02:53:02.243Z,98768.13
2023-03-05T02:54:35.991Z,98770.16
2023-03-05T02:56:09.250Z,98766.72
2023-03-05T02:57:42.602Z,98766.53
2023-03-05T02:59:16.053Z,98769.97
2023-03-05T03:00:49.395Z,98773.25
2023-03-05T03:02:22.901Z,98773.19
2023-03-05T03:03:55.081Z,98766.13
2023-03-05T03:05:28.621Z,98769.44
2023-03-05T03:07:01.748Z,98773.72
2023-03-05T03:08:36.486Z,98769.31
2023-03-05T03:10:09.900Z,98769.47
2023-03-05T03:11:43.559Z,98768.28
2023-03-05T03:13:15.636Z,98773.75
2023-03-05T03:14:48.944Z,98773.91
2023-03-05T03:16:22.236Z,98766.94
2023-03-05T03:17:56.097Z,98772.94
2023-03-05T03:19:29.372Z,98773.91
2023-03-05T03:21:02.948Z,98777.81
2023-03-05T03:22:36.188Z,98777.13
2023-03-05T03:24:11.052Z,98781.28
2023-03-05T03:25:43.354Z,98779.41
2023-03-05T03:27:16.571Z,98781.03
2023-03-05T03:28:49.700Z,98773.19
2023-03-05T03:30:23.228Z,98776.44
2023-03-05T03:31:55.478Z,98771.78
2023-03-05T03:33:28.647Z,98775.94
2023-03-05T03:35:01.293Z,98771.59
2023-03-05T03:36:35.902Z,98771.78
2023-03-05T03:38:08.179Z,98761.34
2023-03-05T03:39:42.790Z,98775.41
2023-03-05T03:41:18.944Z,98767.53
2023-03-05T03:42:53.202Z,98762.22
2023-03-05T03:44:26.386Z,98772.66
2023-03-05T03:45:59.578Z,98763.00
2023-03-05T03:47:32.947Z,98763.69
2023-03-05T03:49:06.510Z,98769.63
2023-03-05T03:50:39.478Z,98770.41
2023-03-05T03:52:12.730Z,98766.13
2023-03-05T03:53:46.023Z,98766.13
2023-03-05T03:55:19.906Z,98766.13
2023-03-05T03:56:53.768Z,98769.53
2023-03-05T03:58:27.344Z,98767.72
2023-03-05T04:00:00.953Z,98769.44
2023-03-05T04:01:34.488Z,98768.41
2023-03-05T04:03:07.148Z,98779.75
2023-03-05T04:04:40.449Z,98768.28
2023-03-05T04:06:13.772Z,98771.03
2023-03-05T04:07:47.188Z,98769.31
2023-03-05T04:09:19.285Z,98777.34
2023-03-05T04:10:53.856Z,98767.00
2023-03-05T04:12:26.306Z,98775.00
2023-03-05T04:13:59.803Z,98769.75
2023-03-05T04:15:32.141Z,98764.47
2023-03-05T04:17:05.420Z,98767.94
2023-03-05T04:18:38.566Z,98765.41
2023-03-05T04:20:13.543Z,98760.03
2023-03-05T04:21:46.707Z,98770.63
2023-03-05T04:23:20.017Z,98766.31
2023-03-05T04:24:53.182Z,98764.47
2023-03-05T04:26:28.259Z,98766.16
2023-03-05T04:28:01.473Z,98762.66
2023-03-05T04:29:36.914Z,98766.22
2023-03-05T04:31:10.116Z,98761.78
2023-03-05T04:32:43.935Z,98766.91
2023-03-05T04:34:17.204Z,98765.13
2023-03-05T04:35:50.423Z,98760.84
2023-03-05T04:37:22.857Z,98759.09
2023-03-05T04:38:56.510Z,98760.72
2023-03-05T04:40:28.885Z,98765.88
2023-03-05T04:42:03.491Z,98764.94
2023-03-05T04:43:36.651Z,98764.94
2023-03-05T04:45:10.907Z,98768.50
2023-03-05T04:46:44.267Z,98764.09
2023-03-05T04:48:17.105Z,98763.19
2023-03-05T04:49:50.166Z,98767.38
2023-03-05T04:51:23.895Z,98764.75
2023-03-05T04:52:57.323Z,98763.72
2023-03-05T04:54:30.480Z,98769.78
2023-03-05T04:56:03.672Z,98768.88
2023-03-05T04:57:38.874Z,98764.47
2023-03-05T04:59:12.310Z,98761.88
2023-03-05T05:00:45.704Z,98763.50
2023-03-05T05:02:17.877Z,98768.66
2023-03-05T05:03:51.560Z,98766.81
2023-03-05T05:05:26.779Z,98770.25
2023-03-05T05:07:00.805Z,98771.84
2023-03-05T05:08:34.292Z,98767.63
2023-03-05T05:10:10.363Z,98770.25
2023-03-05T05:11:43.484Z,98769.28
2023-03-05T05:13:18.017Z,98776.25
2023-03-05T05:14:51.161Z,98766.47
2023-03-05T05:16:24.849Z,98769.16
2023-03-05T05:17:57.979Z,98768.28
2023-03-05T05:19:31.358Z,98768.19
2023-03-05T05:21:09.265Z,98769.78
2023-03-05T05:22:43.289Z,98767.94
2023-03-05T05:24:16.428Z,98766.13
2023-03-05T05:25:57.629Z,98765.13
2023-03-05T05:27:30.878Z,98768.59
2023-03-05T05:29:05.912Z,98772.78
2023-03-05T05:30:39.720Z,98769.31
2023-03-05T05:32:13.344Z,98778.16
2023-03-05T05:33:49.597Z,98785.50
2023-03-05T05:35:23.551Z,98783.03
2023-03-05T05:36:56.807Z,98781.47
2023-03-05T05:38:30.101Z,98789.59
2023-03-05T05:40:04.390Z,98793.41
2023-03-05T05:41:37.837Z,98801.50
2023-03-05T05:43:10.462Z,98796.50
2023-03-05T05:44:45.054Z,98794.94
2023-03-05T05:46:20.652Z,98800.22
2023-03-05T05:47:53.110Z,98793.09
2023-03-05T05:49:26.691Z,98796.56
2023-03-05T05:51:00.279Z,98793.13
2023-03-05T05:52:33.443Z,98792.31
2023-03-05T05:54:07.271Z,98796.34
2023-03-05T05:55:41.463Z,98796.88
2023-03-05T05:57:14.965Z,98803.59
2023-03-05T05:58:49.472Z,98799.81
2023-03-05T06:00:24.933Z,98807.56
2023-03-05T06:01:58.221Z,98804.72
2023-03-05T06:03:31.162Z,98808.25
2023-03-05T06:05:04.424Z,98801.41
2023-03-05T06:06:37.730Z,98804.84
2023-03-05T06:08:11.205Z,98809.94
2023-03-05T06:09:43.506Z,98808.91
2023-03-05T06:11:19.251Z,98805.28
2023-03-05T06:12:53.113Z,98806.00
2023-03-05T06:14:26.341Z,98812.00
2023-03-05T06:16:03.485Z,98806.69
2023-03-05T06:17:36.953Z,98817.94
2023-03-05T06:19:12.733Z,98817.06
2023-03-05T06:20:44.932Z,98816.94
2023-03-05T06:22:18.087Z,98810.63
2023-03-05T06:23:52.526Z,98810.31
2023-03-05T06:25:25.881Z,98803.13
2023-03-05T06:26:59.154Z,98808.88
2023-03-05T06:28:31.783Z,98808.50
2023-03-05T06:30:05.612Z,98811.63
2023-03-05T06:31:40.466Z,98802.69
2023-03-05T06:33:12.924Z,98804.34
2023-03-05T06:34:46.219Z,98804.34
2023-03-05T06:36:21.436Z,98803.38
2023-03-05T06:37:54.705Z,98812.34
2023-03-05T06:39:27.879Z,98808.78
2023-03-05T06:41:02.761Z,98808.78
2023-03-05T06:42:36.152Z,98816.50
2023-03-05T06:44:09.699Z,98807.47
2023-03-05T06:45:41.894Z,98811.59
2023-03-05T06:47:16.522Z,98814.91
2023-03-05T06:48:50.642Z,98813.66
2023-03-05T06:50:24.280Z,98807.28
2023-03-05T06:51:56.512Z,98813.16
2023-03-05T06:53:29.790Z,98814.75
2023-03-05T06:55:03.007Z,98810.22
2023-03-05T06:56:38.610Z,98822.09
2023-03-05T06:58:11.928Z,98814.84
2023-03-05T06:59:45.106Z,98813.81
2023-03-05T07:01:18.354Z,98810.88
2023-03-05T07:02:53.126Z,98812.47
2023-03-05T07:04:26.343Z,98814.19
2023-03-05T07:05:59.938Z,98814.31
2023-03-05T07:07:34.098Z,98800.44
2023-03-05T07:09:08.603Z,98805.59
2023-03-05T07:10:43.034Z,98813.91
2023-03-05T07:12:16.740Z,98815.50
2023-03-05T07:13:50.826Z,98811.78
2023-03-05T07:15:24.287Z,98813.41
2023-03-05T07:16:56.506Z,98809.53
2023-03-05T07:18:31.211Z,98810.97
2023-03-05T07:20:04.962Z,98810.59
2023-03-05T07:21:39.971Z,98808.72
2023-03-05T07:23:13.383Z,98815.44
2023-03-05T07:24:46.514Z,98808.94
2023-03-05T07:26:19.710Z,98820.47
2023-03-05T07:27:53.003Z,98810.75
2023-03-05T07:29:27.623Z,98812.41
2023-03-05T07:31:02.746Z,98813.03
2023-03-05T07:32:37.087Z,98812.75
2023-03-05T07:34:12.529Z,98814.59
2023-03-05T07:35:45.730Z,98798.47
2023-03-05T07:37:19.175Z,98799.91
2023-03-05T07:38:52.287Z,98799.59
2023-03-05T07:40:25.791Z,98789.94
2023-03-05T07:41:59.311Z,98790.88
2023-03-05T07:43:37.698Z,98787.16
2023-03-05T07:45:11.963Z,98788.28
2023-03-05T07:46:45.951Z,98784.84
2023-03-05T07:48:21.511Z,98781.56
2023-03-05T07:49:56.376Z,98786.72
2023-03-05T07:51:30.166Z,98788.13
2023-03-05T07:53:03.527Z,98777.13
2023-03-05T07:54:39.877Z,98781.03
2023-03-05T07:56:13.160Z,98775.94
2023-03-05T07:57:46.323Z,98777.34
2023-03-05T07:59:19.650Z,98773.75
2023-03-05T08:00:53.238Z,98769.72
2023-03-05T08:02:26.586Z,98771.44
2023-03-05T08:04:03.111Z,98768.84
2023-03-05T08:05:43.342Z,98776.72
2023-03-05T08:07:17.267Z,98785.13
2023-03-05T08:08:50.523Z,98768.94
2023-03-05T08:10:23.643Z,98765.69
2023-03-05T08:11:57.284Z,98762.63
2023-03-05T08:13:30.656Z,98758.03
2023-03-05T08:15:03.883Z,98765.03
2023-03-05T08:16:37.190Z,98766.69
2023-03-05T08:18:10.967Z,98768.78
2023-03-05T08:19:44.565Z,98755.91
2023-03-05T08:21:21.237Z,98751.94
2023-03-05T08:22:54.609Z,98760.66
2023-03-05T08:24:29.908Z,98759.97
2023-03-05T08:26:03.059Z,98758.81
2023-03-05T08:27:40.423Z,98760.03
2023-03-05T08:29:13.857Z,98752.38
2023-03-05T08:30:47.619Z,98757.34
2023-03-05T08:32:20.836Z,98753.88
2023-03-05T08:33:56.028Z,98756.56
2023-03-05T08:35:29.275Z,98751.47
2023-03-05T08:37:04.577Z,98755.25
2023-03-05T08:38:37.946Z,98746.66
2023-03-05T08:40:12.651Z,98739.69
2023-03-05T08:41:45.866Z,98745.16
2023-03-05T08:43:19.305Z,98752.44
2023-03-05T08:44:52.729Z,98743.19
2023-03-05T08:46:26.297Z,98730.81
2023-03-05T08:47:59.422Z,98728.72
2023-03-05T08:49:32.861Z,98726.06
2023-03-05T08:51:07.261Z,98730.25
2023-03-05T08:52:41.825Z,98718.91
2023-03-05T08:54:15.031Z,98722.72
2023-03-05T08:55:55.521Z,98722.84
2023-03-05T08:57:28.723Z,98723.78
2023-03-05T08:59:01.894Z,98720.16
2023-03-05T09:00:35.033Z,98719.69
2023-03-05T09:02:08.737Z,98714.53
2023-03-05T09:03:42.325Z,98708.69
2023-03-05T09:05:15.529Z,98717.38
2023-03-05T09:06:48.726Z,98709.34
2023-03-05T09:08:23.665Z,98696.78
2023-03-05T09:09:56.842Z,98699.91
2023-03-05T09:11:30.021Z,98696.31
2023-03-05T09:13:04.203Z,98689.22
2023-03-05T09:14:37.641Z,98696.53
2023-03-05T09:16:13.699Z,98691.97
2023-03-05T09:17:47.207Z,98678.47
2023-03-05T09:19:20.299Z,98687.19
2023-03-05T09:20:55.664Z,98684.59
2023-03-05T09:22:30.510Z,98684.78
2023-03-05T09:24:05.448Z,98688.00
2023-03-05T09:25:40.825Z,98684.22
2023-03-05T09:27:14.281Z,98682.03
2023-03-05T09:28:48.515Z,98681.34
2023-03-05T09:30:22.329Z,98683.97
2023-03-05T09:31:55.750Z,98676.47
2023-03-05T09:33:29.198Z,98673.69
2023-03-05T09:35:02.741Z,98675.75
2023-03-05T09:36:36.264Z,98677.25
2023-03-05T09:38:10.885Z,98677.97
2023-03-05T09:39:45.803Z,98675.47
2023-03-05T09:41:31.293Z,98672.38
2023-03-05T09:43:13.028Z,98666.13
2023-03-05T09:44:56.754Z,98677.38
2023-03-05T09:46:41.999Z,98671.84
2023-03-05T09:48:20.555Z,98682.56
2023-03-05T09:50:02.485Z,98665.03
2023-03-05T09:51:40.448Z,98665.91
2023-03-05T09:53:33.197Z,98675.09
2023-03-05T09:55:14.701Z,98665.91
2023-03-05T09:56:51.583Z,98651.91
2023-03-05T09:58:35.853Z,98657.22
2023-03-05T10:00:22.848Z,98655.53
2023-03-05T10:01:59.165Z,98651.19
2023-03-05T10:03:45.784Z,98644.34
2023-03-05T10:05:24.121Z,98654.13
2023-03-05T10:07:01.683Z,98649.97
2023-03-05T10:08:47.412Z,98648.53
2023-03-05T10:10:27.066Z,98653.09
2023-03-05T10:12:04.522Z,98640.06
2023-03-05T10:13:40.542Z,98644.25
2023-03-05T10:15:16.314Z,98642.00
2023-03-05T10:17:02.129Z,98633.72
2023-03-05T10:18:42.580Z,98651.84
2023-03-05T10:20:42.551Z,98647.31
2023-03-05T10:22:21.750Z,98628.34
2023-03-05T10:24:12.092Z,98629.84
2023-03-05T10:25:58.202Z,98622.31
2023-03-05T10:27:44.048Z,98623.69
2023-03-05T10:29:37.500Z,98618.03
2023-03-05T10:31:26.173Z,98623.59
2023-03-05T10:33:13.404Z,98618.28
2023-03-05T10:35:20.857Z,98614.91
2023-03-05T10:37:13.073Z,98598.28
2023-03-05T10:39:01.311Z,98606.06
2023-03-05T10:40:39.958Z,98607.59
2023-03-05T10:42:24.748Z,98599.84
2023-03-05T10:44:02.898Z,98594.91
2023-03-05T10:45:40.815Z,98596.25
2023-03-05T10:47:20.891Z,98592.47
2023-03-05T10:48:59.301Z,98581.44
2023-03-05T10:50:38.115Z,98568.31
2023-03-05T10:52:18.467Z,98568.53
2023-03-05T10:53:57.571Z,98566.81
2023-03-05T10:55:30.713Z,98568.34
2023-03-05T10:57:06.045Z,98569.84
2023-03-05T10:58:40.655Z,98560.22
2023-03-05T11:00:20.949Z,98548.22
2023-03-05T11:02:05.338Z,98542.91
2023-03-05T11:03:51.869Z,98551.06
2023-03-05T11:05:46.497Z,98543.22
2023-03-05T11:07:39.006Z,98547.53
2023-03-05T11:09:28.308Z,98546.53
2023-03-05T11:11:16.592Z,98547.63
2023-03-05T11:12:50.111Z,98534.25
2023-03-05T11:14:33.188Z,98531.63
2023-03-05T11:16:08.969Z,98522.47
2023-03-05T11:17:44.720Z,98526.53
2023-03-05T11:19:21.828Z,98520.88
2023-03-05T11:21:09.414Z,98517.63
2023-03-05T11:22:42.534Z,98513.66
2023-03-05T11:24:18.296Z,98507.09
2023-03-05T11:25:58.278Z,98512.69
2023-03-05T11:27:36.665Z,98499.53
2023-03-05T11:29:19.573Z,98495.28
2023-03-05T11:31:00.609Z,98501.09
2023-03-05T11:32:34.306Z,98483.81
2023-03-05T11:34:09.381Z,98484.06
2023-03-05T11:35:44.493Z,98490.19
2023-03-05T11:37:25.401Z,98493.16
2023-03-05T11:39:00.822Z,98486.63
2023-03-05T11:40:37.094Z,98489.16
2023-03-05T11:42:15.296Z,98480.06
2023-03-05T11:43:52.164Z,98475.00
2023-03-05T11:45:27.680Z,98473.06
2023-03-05T11:47:06.228Z,98471.78
2023-03-05T11:48:41.960Z,98472.31
2023-03-05T11:50:22.303Z,98456.56
2023-03-05T11:52:01.909Z,98460.59
2023-03-05T11:53:37.086Z,98451.72
2023-03-05T11:55:16.307Z,98450.38
2023-03-05T11:56:50.271Z,98443.13
2023-03-05T11:58:30.496Z,98438.88
2023-03-05T12:00:11.623Z,98449.53
2023-03-05T12:01:48.084Z,98444.97
2023-03-05T12:03:26.411Z,98445.00
2023-03-05T12:05:03.351Z,98439.84
2023-03-05T12:06:41.053Z,98447.63
2023-03-05T12:08:17.056Z,98448.84
2023-03-05T12:09:52.212Z,98433.78
2023-03-05T12:11:29.071Z,98447.00
2023-03-05T12:13:07.995Z,98452.50
2023-03-05T12:14:46.602Z,98426.38
2023-03-05T12:16:29.385Z,98433.63
2023-03-05T12:18:15.128Z,98451.78
2023-03-05T12:19:58.396Z,98439.47
2023-03-05T12:21:37.083Z,98440.69
2023-03-05T12:23:15.203Z,98445.34
2023-03-05T12:24:48.546Z,98446.47
2023-03-05T12:26:59.800Z,98435.56
2023-03-05T12:28:58.590Z,98450.66
2023-03-05T12:30:59.145Z,98433.19
2023-03-05T12:33:02.695Z,98440.78
2023-03-05T12:34:51.586Z,98431.13
2023-03-05T12:36:36.825Z,98426.97
2023-03-05T12:38:31.751Z,98455.59
2023-03-05T12:40:21.699Z,98445.84
2023-03-05T12:41:56.697Z,98452.94
2023-03-05T12:43:32.245Z,98441.53
2023-03-05T12:45:25.966Z,98455.22
2023-03-05T12:47:23.931Z,98449.91
2023-03-05T12:48:57.510Z,98445.34
2023-03-05T12:50:52.686Z,98448.19
2023-03-05T12:52:29.563Z,98434.81
2023-03-05T12:54:30.016Z,98453.13
2023-03-05T12:56:12.849Z,98447.69
2023-03-05T12:57:47.726Z,98454.03
2023-03-05T12:59:24.526Z,98451.22
2023-03-05T13:01:05.545Z,98442.56
2023-03-05T13:02:42.304Z,98439.94
2023-03-05T13:04:20.115Z,98446.38
2023-03-05T13:05:57.366Z,98446.28
2023-03-05T13:07:30.522Z,98449.84
2023-03-05T13:09:08.438Z,98449.47
2023-03-05T13:10:42.305Z,98449.94
2023-03-05T13:12:16.150Z,98443.75
2023-03-05T13:13:50.488Z,98447.72
2023-03-05T13:15:25.467Z,98442.81
2023-03-05T13:16:59.238Z,98445.66
2023-03-05T13:18:34.077Z,98454.44
2023-03-05T13:20:30.128Z,98449.84
2023-03-05T13:22:11.197Z,98450.78
2023-03-05T13:23:49.309Z,98454.38
2023-03-05T13:25:22.761Z,98454.38
2023-03-05T13:26:56.879Z,98459.16
2023-03-05T13:28:31.374Z,98445.09
2023-03-05T13:30:05.122Z,98444.06
2023-03-05T13:31:43.172Z,98442.63
2023-03-05T13:33:20.594Z,98440.16
2023-03-05T13:34:56.387Z,98442.50
2023-03-05T13:36:29.741Z,98453.63
2023-03-05T13:38:04.508Z,98437.34
2023-03-05T13:39:44.382Z,98443.41
2023-03-05T13:41:23.954Z,98447.47
2023-03-05T13:43:12.047Z,98429.19
2023-03-05T13:44:45.471Z,98437.53
2023-03-05T13:46:27.151Z,98440.09
2023-03-05T13:48:03.056Z,98434.69
2023-03-05T13:49:36.457Z,98440.38
2023-03-05T13:51:11.973Z,98435.75
2023-03-05T13:52:45.425Z,98440.00
2023-03-05T13:54:21.707Z,98439.41
2023-03-05T13:55:57.922Z,98430.69
2023-03-05T13:57:37.197Z,98433.00
2023-03-05T13:59:18.962Z,98436.00
2023-03-05T14:01:04.605Z,98433.91
2023-03-05T14:02:38.097Z,98426.09
2023-03-05T14:04:22.021Z,98425.91
2023-03-05T14:05:55.843Z,98425.66
2023-03-05T14:07:34.653Z,98417.97
2023-03-05T14:09:09.873Z,98419.00
2023-03-05T14:10:45.479Z,98422.38
2023-03-05T14:12:30.444Z,98424.41
2023-03-05T14:14:10.895Z,98428.78
2023-03-05T14:16:04.223Z,98418.56
2023-03-05T14:17:42.822Z,98415.84
2023-03-05T14:19:34.867Z,98403.63
2023-03-05T14:21:10.307Z,98408.75
2023-03-05T14:22:46.144Z,98412.53
2023-03-05T14:24:23.844Z,98413.31
2023-03-05T14:26:19.216Z,98408.28
2023-03-05T14:27:53.203Z,98400.22
2023-03-05T14:29:29.271Z,98399.63
2023-03-05T14:31:02.568Z,98397.16
2023-03-05T14:32:38.622Z,98385.19
2023-03-05T14:34:22.096Z,98395.47
2023-03-05T14:35:57.807Z,98392.53
2023-03-05T14:37:35.552Z,98381.81
2023-03-05T14:39:09.322Z,98388.72
2023-03-05T14:40:42.657Z,98392.03
2023-03-05T14:42:33.489Z,98382.19
2023-03-05T14:44:15.745Z,98389.00
2023-03-05T14:45:49.392Z,98383.81
2023-03-05T14:47:22.524Z,98383.13
2023-03-05T14:48:55.769Z,98374.03
2023-03-05T14:50:31.115Z,98378.59
2023-03-05T14:52:06.762Z,98377.81
2023-03-05T14:53:46.917Z,98388.81
2023-03-05T14:55:22.938Z,98389.94
2023-03-05T14:56:56.383Z,98391.28
2023-03-05T14:58:35.533Z,98387.97
2023-03-05T15:00:18.014Z,98381.22
2023-03-05T15:01:51.508Z,98382.16
2023-03-05T15:03:25.803Z,98373.59
2023-03-05T15:04:59.558Z,98383.06
2023-03-05T15:06:36.749Z,98385.41
2023-03-05T15:08:16.021Z,98386.53
2023-03-05T15:09:49.576Z,98386.25
2023-03-05T15:11:23.289Z,98378.38
2023-03-05T15:12:56.513Z,98382.81
2023-03-05T15:14:31.377Z,98373.06
2023-03-05T15:16:06.683Z,98375.91
2023-03-05T15:17:43.595Z,98373.25
2023-03-05T15:19:20.553Z,98375.66
2023-03-05T15:20:54.896Z,98367.16
2023-03-05T15:22:28.498Z,98369.03
2023-03-05T15:24:01.800Z,98364.59
2023-03-05T15:25:35.284Z,98373.59
2023-03-05T15:27:08.470Z,98373.28
2023-03-05T15:28:43.131Z,98369.03
2023-03-05T15:30:23.343Z,98370.72
2023-03-05T15:31:56.485Z,98373.19
2023-03-05T15:33:30.486Z,98365.41
2023-03-05T15:35:03.859Z,98365.06
2023-03-05T15:36:37.009Z,98367.53
2023-03-05T15:38:10.256Z,98373.59
2023-03-05T15:39:43.628Z,98368.50
2023-03-05T15:41:17.935Z,98378.69
2023-03-05T15:42:52.158Z,98385.28
2023-03-05T15:44:25.518Z,98388.44
2023-03-05T15:46:00.254Z,98374.13
2023-03-05T15:47:33.947Z,98374.91
2023-03-05T15:49:07.424Z,98377.25
2023-03-05T15:50:43.040Z,98379.03
2023-03-05T15:52:16.607Z,98377.69
2023-03-05T15:53:50.063Z,98380.97
2023-03-05T15:55:23.507Z,98386.13
2023-03-05T15:56:56.640Z,98388.38
2023-03-05T15:58:29.786Z,98389.06
2023-03-05T16:00:03.388Z,98388.47
2023-03-05T16:01:49.065Z,98391.13
2023-03-05T16:03:23.181Z,98387.03
2023-03-05T16:04:56.779Z,98388.22
2023-03-05T16:06:31.097Z,98398.81
2023-03-05T16:08:04.671Z,98399.00
2023-03-05T16:09:40.455Z,98398.41
2023-03-05T16:11:17.442Z,98394.56
2023-03-05T16:12:54.659Z,98395.06
2023-03-05T16:14:30.016Z,98397.09
2023-03-05T16:16:05.965Z,98395.88
2023-03-05T16:17:53.870Z,98393.28
2023-03-05T16:19:29.531Z,98392.63
2023-03-05T16:21:03.187Z,98401.72
2023-03-05T16:22:36.490Z,98402.03
2023-03-05T16:24:09.931Z,98410.56
2023-03-05T16:25:43.429Z,98399.28
2023-03-05T16:27:17.718Z,98401.31
2023-03-05T16:28:50.997Z,98413.81
2023-03-05T16:30:24.744Z,98406.91
2023-03-05T16:31:58.316Z,98417.03
2023-03-05T16:33:35.239Z,98414.78
2023-03-05T16:35:11.993Z,98422.81
2023-03-05T16:36:50.861Z,98420.16
2023-03-05T16:38:24.048Z,98421.22
2023-03-05T16:40:00.181Z,98426.00
2023-03-05T16:41:33.735Z,98425.22
2023-03-05T16:43:07.293Z,98428.16
2023-03-05T16:44:40.877Z,98424.34
2023-03-05T16:46:15.522Z,98422.63
2023-03-05T16:47:48.694Z,98432.34
2023-03-05T16:49:24.231Z,98429.94
2023-03-05T16:50:57.957Z,98424.81
2023-03-05T16:52:31.823Z,98432.13
2023-03-05T16:54:05.426Z,98432.56
2023-03-05T16:55:39.251Z,98434.13
2023-03-05T16:57:12.729Z,98437.84
2023-03-05T16:58:45.978Z,98438.91
2023-03-05T17:00:22.085Z,98439.88
2023-03-05T17:01:55.556Z,98453.28
2023-03-05T17:03:30.155Z,98454.16
2023-03-05T17:05:05.230Z,98450.09
2023-03-05T17:06:39.054Z,98442.84
2023-03-05T17:08:12.326Z,98447.59
2023-03-05T17:09:46.623Z,98448.63
2023-03-05T17:11:20.865Z,98454.84
2023-03-05T17:12:54.688Z,98448.72
2023-03-05T17:14:28.156Z,98453.44
2023-03-05T17:16:01.390Z,98454.44
2023-03-05T17:17:34.987Z,98457.28
2023-03-05T17:19:08.289Z,98462.56
2023-03-05T17:20:43.180Z,98460.00
2023-03-05T17:22:16.695Z,98459.13
2023-03-05T17:23:50.339Z,98470.25
2023-03-05T17:25:23.624Z,98462.56
2023-03-05T17:26:57.292Z,98466.81
2023-03-05T17:28:30.396Z,98474.75
2023-03-05T17:30:04.014Z,98473.84
2023-03-05T17:31:37.375Z,98473.97
2023-03-05T17:33:11.432Z,98474.75
2023-03-05T17:34:44.834Z,98474.84
2023-03-05T17:36:21.719Z,98472.28
2023-03-05T17:37:55.426Z,98483.97
2023-03-05T17:39:28.834Z,98485.94
2023-03-05T17:41:03.616Z,98467.97
2023-03-05T17:42:38.546Z,98486.50
2023-03-05T17:44:12.689Z,98492.03
2023-03-05T17:45:47.407Z,98485.00
2023-03-05T17:47:26.613Z,98480.66
2023-03-05T17:49:01.554Z,98494.59
2023-03-05T17:50:36.409Z,98488.69
2023-03-05T17:52:12.185Z,98489.63
2023-03-05T17:53:48.016Z,98501.25
2023-03-05T17:55:29.121Z,98504.00
2023-03-05T17:57:03.543Z,98506.66
2023-03-05T17:58:39.717Z,98511.13
2023-03-05T18:00:18.138Z,98507.84
2023-03-05T18:01:51.845Z,98511.25
2023-03-05T18:03:26.897Z,98507.97
2023-03-05T18:05:22.901Z,98510.59
2023-03-05T18:06:57.961Z,98515.09
2023-03-05T18:08:33.426Z,98508.38
2023-03-05T18:10:09.284Z,98503.22
2023-03-05T18:11:42.515Z,98519.75
2023-03-05T18:13:16.616Z,98519.88
2023-03-05T18:14:51.133Z,98511.25
2023-03-05T18:16:25.638Z,98520.09
2023-03-05T18:17:59.685Z,98531.53
2023-03-05T18:19:33.071Z,98535.13
2023-03-05T18:21:08.044Z,98524.56
2023-03-05T18:22:41.903Z,98524.97
2023-03-05T18:24:18.806Z,98526.69
2023-03-05T18:25:52.395Z,98539.06
2023-03-05T18:27:25.812Z,98533.94
2023-03-05T18:29:00.606Z,98537.47
2023-03-05T18:30:34.837Z,98534.97
2023-03-05T18:32:09.842Z,98535.88
2023-03-05T18:33:44.918Z,98542.25
2023-03-05T18:35:19.023Z,98546.69
2023-03-05T18:36:52.502Z,98544.97
2023-03-05T18:38:27.890Z,98541.44
2023-03-05T18:40:03.277Z,98546.81
2023-03-05T18:41:37.374Z,98553.38
2023-03-05T18:43:11.404Z,98550.81
2023-03-05T18:44:44.675Z,98555.09
2023-03-05T18:46:18.204Z,98553.50